sensor_id;sensor_type;location;lat;lon;timestamp;temperature;humidity
42907;DHT22;28552;51.146;6.576;2023-07-16T00:01:26;18.50;99.90
42907;DHT22;28552;51.146;6.576;2023-07-16T00:04:27;18.50;99.90
42907;DHT22;28552;51.146;6.576;2023-07-16T00:07:27;18.60;99.90
42907;DHT22;28552;51.146;6.576;2023-07-16T00:10:28;18.70;99.90
42907;DHT22;28552;51.146;6.576;2023-07-16T00:13:28;18.70;99.90
42907;DHT22;28552;51.146;6.576;2023-07-16T00:16:29;18.70;99.90
42907;DHT22;28552;51.146;6.576;2023-07-16T00:19:29;18.70;99.90
42907;DHT22;28552;51.146;6.576;2023-07-16T00:22:30;18.70;99.90
42907;DHT22;28552;51.146;6.576;2023-07-16T00:25:31;18.70;99.90
42907;DHT22;28552;51.146;6.576;2023-07-16T00:28:31;18.60;99.90
42907;DHT22;28552;51.146;6.576;2023-07-16T00:31:32;18.60;99.90
42907;DHT22;28552;51.146;6.576;2023-07-16T00:34:32;18.50;99.90
42907;DHT22;28552;51.146;6.576;2023-07-16T00:37:34;18.40;99.90
42907;DHT22;28552;51.146;6.576;2023-07-16T00:40:35;18.40;99.90
42907;DHT22;28552;51.146;6.576;2023-07-16T00:43:35;18.40;99.90
42907;DHT22;28552;51.146;6.576;2023-07-16T00:46:36;18.30;99.90
42907;DHT22;28552;51.146;6.576;2023-07-16T00:49:37;18.20;99.90
42907;DHT22;28552;51.146;6.576;2023-07-16T00:52:39;18.20;99.90
42907;DHT22;28552;51.146;6.576;2023-07-16T00:55:40;18.10;99.90
42907;DHT22;28552;51.146;6.576;2023-07-16T00:58:40;18.10;99.90
42907;DHT22;28552;51.146;6.576;2023-07-16T01:01:41;18.10;99.90
42907;DHT22;28552;51.146;6.576;2023-07-16T01:04:42;18.10;99.90
42907;DHT22;28552;51.146;6.576;2023-07-16T01:07:50;18.10;99.90
42907;DHT22;28552;51.146;6.576;2023-07-16T01:10:52;18.10;99.90
42907;DHT22;28552;51.146;6.576;2023-07-16T01:13:53;18.10;99.90
42907;DHT22;28552;51.146;6.576;2023-07-16T01:16:54;18.10;99.90
42907;DHT22;28552;51.146;6.576;2023-07-16T01:19:59;18.10;99.90
42907;DHT22;28552;51.146;6.576;2023-07-16T01:23:26;18.10;99.90
42907;DHT22;28552;51.146;6.576;2023-07-16T01:26:32;18.10;99.90
42907;DHT22;28552;51.146;6.576;2023-07-16T01:29:44;18.10;99.90
42907;DHT22;28552;51.146;6.576;2023-07-16T01:32:46;18.10;99.90
42907;DHT22;28552;51.146;6.576;2023-07-16T01:35:47;18.20;99.90
42907;DHT22;28552;51.146;6.576;2023-07-16T01:38:49;18.10;99.90
42907;DHT22;28552;51.146;6.576;2023-07-16T01:41:49;18.10;99.90
42907;DHT22;28552;51.146;6.576;2023-07-16T01:44:50;18.00;99.90
42907;DHT22;28552;51.146;6.576;2023-07-16T01:48:02;18.00;99.90
42907;DHT22;28552;51.146;6.576;2023-07-16T01:51:06;18.00;99.90
42907;DHT22;28552;51.146;6.576;2023-07-16T01:54:06;18.00;99.90
42907;DHT22;28552;51.146;6.576;2023-07-16T01:57:07;18.00;99.90
42907;DHT22;28552;51.146;6.576;2023-07-16T02:00:08;18.00;99.90
42907;DHT22;28552;51.146;6.576;2023-07-16T02:03:09;18.00;99.90
42907;DHT22;28552;51.146;6.576;2023-07-16T02:06:09;18.00;99.90
42907;DHT22;28552;51.146;6.576;2023-07-16T02:09:10;18.00;99.90
42907;DHT22;28552;51.146;6.576;2023-07-16T02:12:11;18.00;99.90
42907;DHT22;28552;51.146;6.576;2023-07-16T02:15:11;18.00;99.90
42907;DHT22;28552;51.146;6.576;2023-07-16T02:18:12;18.00;99.90
42907;DHT22;28552;51.146;6.576;2023-07-16T02:21:12;18.00;99.90
42907;DHT22;28552;51.146;6.576;2023-07-16T02:24:13;17.90;99.90
42907;DHT22;28552;51.146;6.576;2023-07-16T02:27:13;17.90;99.90
42907;DHT22;28552;51.146;6.576;2023-07-16T02:30:15;17.90;99.90
42907;DHT22;28552;51.146;6.576;2023-07-16T02:33:15;17.80;99.90
42907;DHT22;28552;51.146;6.576;2023-07-16T02:36:16;17.80;99.90
42907;DHT22;28552;51.146;6.576;2023-07-16T02:39:16;17.80;99.90
42907;DHT22;28552;51.146;6.576;2023-07-16T02:42:17;17.80;99.90
42907;DHT22;28552;51.146;6.576;2023-07-16T02:45:17;17.80;99.90
42907;DHT22;28552;51.146;6.576;2023-07-16T02:48:18;17.70;99.90
42907;DHT22;28552;51.146;6.576;2023-07-16T02:51:19;17.80;99.90
42907;DHT22;28552;51.146;6.576;2023-07-16T02:54:19;17.80;99.90
42907;DHT22;28552;51.146;6.576;2023-07-16T02:57:21;17.80;99.90
42907;DHT22;28552;51.146;6.576;2023-07-16T03:00:23;17.80;99.90
42907;DHT22;28552;51.146;6.576;2023-07-16T03:03:23;17.70;99.90
42907;DHT22;28552;51.146;6.576;2023-07-16T03:06:24;17.70;99.90
42907;DHT22;28552;51.146;6.576;2023-07-16T03:09:24;17.70;99.90
42907;DHT22;28552;51.146;6.576;2023-07-16T03:12:25;17.70;99.90
42907;DHT22;28552;51.146;6.576;2023-07-16T03:15:25;17.60;99.90
42907;DHT22;28552;51.146;6.576;2023-07-16T03:18:30;17.60;99.90
42907;DHT22;28552;51.146;6.576;2023-07-16T03:21:31;17.60;99.90
42907;DHT22;28552;51.146;6.576;2023-07-16T03:24:31;17.60;99.90
42907;DHT22;28552;51.146;6.576;2023-07-16T03:27:32;17.50;99.90
42907;DHT22;28552;51.146;6.576;2023-07-16T03:30:33;17.50;99.90
42907;DHT22;28552;51.146;6.576;2023-07-16T03:33:33;17.40;99.90
42907;DHT22;28552;51.146;6.576;2023-07-16T03:36:34;17.40;99.90
42907;DHT22;28552;51.146;6.576;2023-07-16T03:39:34;17.40;99.90
42907;DHT22;28552;51.146;6.576;2023-07-16T03:42:35;17.40;99.90
42907;DHT22;28552;51.146;6.576;2023-07-16T03:45:35;17.40;99.90
42907;DHT22;28552;51.146;6.576;2023-07-16T03:48:36;17.30;99.90
42907;DHT22;28552;51.146;6.576;2023-07-16T03:51:37;17.30;99.90
42907;DHT22;28552;51.146;6.576;2023-07-16T03:54:37;17.30;99.90
42907;DHT22;28552;51.146;6.576;2023-07-16T03:57:38;17.20;99.90
42907;DHT22;28552;51.146;6.576;2023-07-16T04:00:41;17.20;99.90
42907;DHT22;28552;51.146;6.576;2023-07-16T04:03:41;17.20;99.90
42907;DHT22;28552;51.146;6.576;2023-07-16T04:06:42;17.20;99.90
42907;DHT22;28552;51.146;6.576;2023-07-16T04:09:42;17.20;99.90
42907;DHT22;28552;51.146;6.576;2023-07-16T04:12:43;17.20;99.90
42907;DHT22;28552;51.146;6.576;2023-07-16T04:15:43;17.10;99.90
42907;DHT22;28552;51.146;6.576;2023-07-16T04:18:44;17.10;99.90
42907;DHT22;28552;51.146;6.576;2023-07-16T04:21:44;17.00;99.90
42907;DHT22;28552;51.146;6.576;2023-07-16T04:24:45;17.10;99.90
42907;DHT22;28552;51.146;6.576;2023-07-16T04:27:46;17.10;99.90
42907;DHT22;28552;51.146;6.576;2023-07-16T04:30:46;17.10;99.90
42907;DHT22;28552;51.146;6.576;2023-07-16T04:33:47;17.10;99.90
42907;DHT22;28552;51.146;6.576;2023-07-16T04:36:47;17.20;99.90
42907;DHT22;28552;51.146;6.576;2023-07-16T04:39:48;17.20;99.90
42907;DHT22;28552;51.146;6.576;2023-07-16T04:42:48;17.20;99.90
42907;DHT22;28552;51.146;6.576;2023-07-16T04:45:49;17.20;99.90
42907;DHT22;28552;51.146;6.576;2023-07-16T04:48:49;17.20;99.90
42907;DHT22;28552;51.146;6.576;2023-07-16T04:51:50;17.30;99.90
42907;DHT22;28552;51.146;6.576;2023-07-16T04:54:50;17.30;99.90
42907;DHT22;28552;51.146;6.576;2023-07-16T04:57:51;17.30;99.90
42907;DHT22;28552;51.146;6.576;2023-07-16T05:00:53;17.30;99.90
42907;DHT22;28552;51.146;6.576;2023-07-16T05:03:54;17.30;99.90
42907;DHT22;28552;51.146;6.576;2023-07-16T05:06:54;17.30;99.90
42907;DHT22;28552;51.146;6.576;2023-07-16T05:09:55;17.40;99.90
42907;DHT22;28552;51.146;6.576;2023-07-16T05:12:56;17.40;99.90
42907;DHT22;28552;51.146;6.576;2023-07-16T05:15:56;17.40;99.90
42907;DHT22;28552;51.146;6.576;2023-07-16T05:18:57;17.50;99.90
42907;DHT22;28552;51.146;6.576;2023-07-16T05:21:57;17.50;99.90
42907;DHT22;28552;51.146;6.576;2023-07-16T05:24:58;17.60;99.90
42907;DHT22;28552;51.146;6.576;2023-07-16T05:27:58;17.60;99.90
42907;DHT22;28552;51.146;6.576;2023-07-16T05:31:00;17.70;99.90
42907;DHT22;28552;51.146;6.576;2023-07-16T05:34:00;17.80;99.90
42907;DHT22;28552;51.146;6.576;2023-07-16T05:37:01;17.80;99.90
42907;DHT22;28552;51.146;6.576;2023-07-16T05:40:02;17.90;99.90
42907;DHT22;28552;51.146;6.576;2023-07-16T05:43:03;17.90;99.90
42907;DHT22;28552;51.146;6.576;2023-07-16T05:46:04;18.00;99.90
42907;DHT22;28552;51.146;6.576;2023-07-16T05:49:05;18.10;99.90
42907;DHT22;28552;51.146;6.576;2023-07-16T05:52:06;18.20;99.90
42907;DHT22;28552;51.146;6.576;2023-07-16T05:55:07;18.30;99.90
42907;DHT22;28552;51.146;6.576;2023-07-16T05:58:08;18.40;99.90
42907;DHT22;28552;51.146;6.576;2023-07-16T06:01:09;18.50;99.90
42907;DHT22;28552;51.146;6.576;2023-07-16T06:04:09;18.50;99.90
42907;DHT22;28552;51.146;6.576;2023-07-16T06:07:10;18.70;99.90
42907;DHT22;28552;51.146;6.576;2023-07-16T06:10:10;18.80;99.90
42907;DHT22;28552;51.146;6.576;2023-07-16T06:13:11;18.90;99.90
42907;DHT22;28552;51.146;6.576;2023-07-16T06:16:11;19.00;99.90
42907;DHT22;28552;51.146;6.576;2023-07-16T06:19:12;19.10;99.90
42907;DHT22;28552;51.146;6.576;2023-07-16T06:22:12;19.30;99.90
42907;DHT22;28552;51.146;6.576;2023-07-16T06:25:13;19.40;99.90
42907;DHT22;28552;51.146;6.576;2023-07-16T06:28:14;19.50;99.90
42907;DHT22;28552;51.146;6.576;2023-07-16T06:31:16;19.60;99.90
42907;DHT22;28552;51.146;6.576;2023-07-16T06:34:17;19.60;99.90
42907;DHT22;28552;51.146;6.576;2023-07-16T06:37:17;19.40;99.90
42907;DHT22;28552;51.146;6.576;2023-07-16T06:40:18;19.40;99.90
42907;DHT22;28552;51.146;6.576;2023-07-16T06:43:18;19.40;99.90
42907;DHT22;28552;51.146;6.576;2023-07-16T06:46:19;19.40;99.90
42907;DHT22;28552;51.146;6.576;2023-07-16T06:49:21;19.30;99.90
42907;DHT22;28552;51.146;6.576;2023-07-16T06:52:22;19.30;99.90
42907;DHT22;28552;51.146;6.576;2023-07-16T06:55:24;19.30;99.90
42907;DHT22;28552;51.146;6.576;2023-07-16T06:58:32;19.20;99.90
42907;DHT22;28552;51.146;6.576;2023-07-16T07:01:33;19.20;99.90
42907;DHT22;28552;51.146;6.576;2023-07-16T07:04:34;19.30;99.90
42907;DHT22;28552;51.146;6.576;2023-07-16T07:07:34;19.40;99.90
42907;DHT22;28552;51.146;6.576;2023-07-16T07:10:35;19.50;99.90
42907;DHT22;28552;51.146;6.576;2023-07-16T07:13:38;19.60;99.90
42907;DHT22;28552;51.146;6.576;2023-07-16T07:16:39;19.60;99.90
42907;DHT22;28552;51.146;6.576;2023-07-16T07:19:41;19.70;99.90
42907;DHT22;28552;51.146;6.576;2023-07-16T07:22:42;19.90;99.90
42907;DHT22;28552;51.146;6.576;2023-07-16T07:25:42;19.90;99.90
42907;DHT22;28552;51.146;6.576;2023-07-16T07:28:43;19.90;99.90
42907;DHT22;28552;51.146;6.576;2023-07-16T07:31:43;20.00;99.90
42907;DHT22;28552;51.146;6.576;2023-07-16T07:34:44;19.90;99.90
42907;DHT22;28552;51.146;6.576;2023-07-16T07:37:44;19.80;99.90
42907;DHT22;28552;51.146;6.576;2023-07-16T07:40:45;19.90;99.90
42907;DHT22;28552;51.146;6.576;2023-07-16T07:43:45;20.00;99.90
42907;DHT22;28552;51.146;6.576;2023-07-16T07:46:46;20.10;99.90
42907;DHT22;28552;51.146;6.576;2023-07-16T07:49:46;20.20;99.70
42907;DHT22;28552;51.146;6.576;2023-07-16T07:52:47;20.30;99.80
42907;DHT22;28552;51.146;6.576;2023-07-16T07:55:47;20.30;99.90
42907;DHT22;28552;51.146;6.576;2023-07-16T07:58:48;20.40;99.30
42907;DHT22;28552;51.146;6.576;2023-07-16T08:01:48;20.50;99.30
42907;DHT22;28552;51.146;6.576;2023-07-16T08:04:52;20.70;98.90
42907;DHT22;28552;51.146;6.576;2023-07-16T08:07:53;20.80;98.90
42907;DHT22;28552;51.146;6.576;2023-07-16T08:10:56;21.20;98.40
42907;DHT22;28552;51.146;6.576;2023-07-16T08:13:56;21.40;97.90
42907;DHT22;28552;51.146;6.576;2023-07-16T08:16:57;21.40;97.70
42907;DHT22;28552;51.146;6.576;2023-07-16T08:19:57;21.40;97.80
42907;DHT22;28552;51.146;6.576;2023-07-16T08:22:58;21.50;97.40
42907;DHT22;28552;51.146;6.576;2023-07-16T08:25:58;21.40;96.00
42907;DHT22;28552;51.146;6.576;2023-07-16T08:28:59;21.30;96.50
42907;DHT22;28552;51.146;6.576;2023-07-16T08:32:01;21.30;96.90
42907;DHT22;28552;51.146;6.576;2023-07-16T08:35:02;21.60;96.80
42907;DHT22;28552;51.146;6.576;2023-07-16T08:38:02;21.60;95.30
42907;DHT22;28552;51.146;6.576;2023-07-16T08:41:03;21.70;95.30
42907;DHT22;28552;51.146;6.576;2023-07-16T08:44:04;21.80;95.00
42907;DHT22;28552;51.146;6.576;2023-07-16T08:47:05;22.00;94.30
42907;DHT22;28552;51.146;6.576;2023-07-16T08:50:07;22.00;93.90
42907;DHT22;28552;51.146;6.576;2023-07-16T08:53:08;21.80;94.00
42907;DHT22;28552;51.146;6.576;2023-07-16T08:56:09;21.60;94.10
42907;DHT22;28552;51.146;6.576;2023-07-16T08:59:10;21.40;93.90
42907;DHT22;28552;51.146;6.576;2023-07-16T09:02:12;21.40;94.20
42907;DHT22;28552;51.146;6.576;2023-07-16T09:05:14;21.30;94.30
42907;DHT22;28552;51.146;6.576;2023-07-16T09:08:15;21.30;94.20
42907;DHT22;28552;51.146;6.576;2023-07-16T09:11:16;21.40;94.00
42907;DHT22;28552;51.146;6.576;2023-07-16T09:14:21;21.50;94.80
42907;DHT22;28552;51.146;6.576;2023-07-16T09:17:22;21.50;94.30
42907;DHT22;28552;51.146;6.576;2023-07-16T09:20:24;21.60;94.10
42907;DHT22;28552;51.146;6.576;2023-07-16T09:23:25;21.70;94.40
42907;DHT22;28552;51.146;6.576;2023-07-16T09:26:27;21.90;94.40
42907;DHT22;28552;51.146;6.576;2023-07-16T09:29:27;22.00;93.60
42907;DHT22;28552;51.146;6.576;2023-07-16T09:32:36;22.00;93.10
42907;DHT22;28552;51.146;6.576;2023-07-16T09:35:40;22.00;92.60
42907;DHT22;28552;51.146;6.576;2023-07-16T09:38:41;22.00;92.80
42907;DHT22;28552;51.146;6.576;2023-07-16T09:41:41;21.90;92.70
42907;DHT22;28552;51.146;6.576;2023-07-16T09:44:44;21.90;93.00
42907;DHT22;28552;51.146;6.576;2023-07-16T09:47:45;21.90;93.10
42907;DHT22;28552;51.146;6.576;2023-07-16T09:50:52;22.00;93.20
42907;DHT22;28552;51.146;6.576;2023-07-16T09:53:54;21.90;92.80
42907;DHT22;28552;51.146;6.576;2023-07-16T09:56:57;21.80;92.90
42907;DHT22;28552;51.146;6.576;2023-07-16T10:00:01;21.80;93.20
42907;DHT22;28552;51.146;6.576;2023-07-16T10:03:07;21.70;93.70
42907;DHT22;28552;51.146;6.576;2023-07-16T10:06:08;21.80;93.10
42907;DHT22;28552;51.146;6.576;2023-07-16T10:09:09;21.80;92.90
42907;DHT22;28552;51.146;6.576;2023-07-16T10:15:12;21.80;92.30
42907;DHT22;28552;51.146;6.576;2023-07-16T10:18:23;21.80;92.10
42907;DHT22;28552;51.146;6.576;2023-07-16T10:21:24;21.80;92.30
42907;DHT22;28552;51.146;6.576;2023-07-16T10:24:27;21.90;92.30
42907;DHT22;28552;51.146;6.576;2023-07-16T10:27:32;22.20;92.10
42907;DHT22;28552;51.146;6.576;2023-07-16T10:30:33;22.30;91.60
42907;DHT22;28552;51.146;6.576;2023-07-16T10:33:35;22.40;91.40
42907;DHT22;28552;51.146;6.576;2023-07-16T10:36:39;22.50;91.30
42907;DHT22;28552;51.146;6.576;2023-07-16T10:39:48;22.60;91.10
42907;DHT22;28552;51.146;6.576;2023-07-16T10:42:49;22.80;91.00
42907;DHT22;28552;51.146;6.576;2023-07-16T10:45:52;22.80;90.70
42907;DHT22;28552;51.146;6.576;2023-07-16T10:48:53;22.80;88.80
42907;DHT22;28552;51.146;6.576;2023-07-16T10:51:54;22.70;88.20
42907;DHT22;28552;51.146;6.576;2023-07-16T10:54:54;22.60;89.00
42907;DHT22;28552;51.146;6.576;2023-07-16T10:57:56;22.60;89.40
42907;DHT22;28552;51.146;6.576;2023-07-16T11:00:56;22.60;89.60
42907;DHT22;28552;51.146;6.576;2023-07-16T11:04:01;22.50;89.10
42907;DHT22;28552;51.146;6.576;2023-07-16T11:07:10;22.40;88.90
42907;DHT22;28552;51.146;6.576;2023-07-16T11:10:12;22.30;89.60
42907;DHT22;28552;51.146;6.576;2023-07-16T11:13:15;22.30;89.70
42907;DHT22;28552;51.146;6.576;2023-07-16T11:16:15;22.30;90.00
42907;DHT22;28552;51.146;6.576;2023-07-16T11:19:20;22.30;89.40
42907;DHT22;28552;51.146;6.576;2023-07-16T11:22:25;22.20;88.90
42907;DHT22;28552;51.146;6.576;2023-07-16T11:25:27;22.20;88.30
42907;DHT22;28552;51.146;6.576;2023-07-16T11:28:38;22.20;88.90
42907;DHT22;28552;51.146;6.576;2023-07-16T11:31:39;22.30;89.10
42907;DHT22;28552;51.146;6.576;2023-07-16T11:34:57;22.20;89.20
42907;DHT22;28552;51.146;6.576;2023-07-16T11:37:58;22.20;90.10
42907;DHT22;28552;51.146;6.576;2023-07-16T11:41:00;22.10;89.90
42907;DHT22;28552;51.146;6.576;2023-07-16T11:44:01;22.10;90.00
42907;DHT22;28552;51.146;6.576;2023-07-16T11:47:03;22.10;89.90
42907;DHT22;28552;51.146;6.576;2023-07-16T11:50:04;22.00;89.50
42907;DHT22;28552;51.146;6.576;2023-07-16T11:53:05;22.00;89.20
42907;DHT22;28552;51.146;6.576;2023-07-16T11:56:06;22.00;87.60
42907;DHT22;28552;51.146;6.576;2023-07-16T11:59:07;22.10;88.30
42907;DHT22;28552;51.146;6.576;2023-07-16T12:02:07;22.10;88.20
42907;DHT22;28552;51.146;6.576;2023-07-16T12:05:08;22.20;87.80
42907;DHT22;28552;51.146;6.576;2023-07-16T12:08:09;22.30;87.30
42907;DHT22;28552;51.146;6.576;2023-07-16T12:11:14;22.20;87.70
42907;DHT22;28552;51.146;6.576;2023-07-16T12:14:15;22.20;86.20
42907;DHT22;28552;51.146;6.576;2023-07-16T12:17:15;22.20;86.50
42907;DHT22;28552;51.146;6.576;2023-07-16T12:20:16;22.30;87.00
42907;DHT22;28552;51.146;6.576;2023-07-16T12:23:16;22.30;86.50
42907;DHT22;28552;51.146;6.576;2023-07-16T12:26:17;22.40;88.00
42907;DHT22;28552;51.146;6.576;2023-07-16T12:29:18;22.60;87.10
42907;DHT22;28552;51.146;6.576;2023-07-16T12:32:18;22.70;86.40
42907;DHT22;28552;51.146;6.576;2023-07-16T12:35:20;22.70;85.60
42907;DHT22;28552;51.146;6.576;2023-07-16T12:38:21;22.70;86.10
42907;DHT22;28552;51.146;6.576;2023-07-16T12:41:22;22.70;85.80
42907;DHT22;28552;51.146;6.576;2023-07-16T12:44:23;22.80;86.30
42907;DHT22;28552;51.146;6.576;2023-07-16T12:47:24;22.90;84.70
42907;DHT22;28552;51.146;6.576;2023-07-16T12:50:24;22.90;84.70
42907;DHT22;28552;51.146;6.576;2023-07-16T12:53:28;22.90;84.70
42907;DHT22;28552;51.146;6.576;2023-07-16T12:56:28;23.00;85.40
42907;DHT22;28552;51.146;6.576;2023-07-16T12:59:31;23.20;84.60
42907;DHT22;28552;51.146;6.576;2023-07-16T13:02:31;23.20;84.30
42907;DHT22;28552;51.146;6.576;2023-07-16T13:05:32;23.20;83.90
42907;DHT22;28552;51.146;6.576;2023-07-16T13:08:32;23.40;84.70
42907;DHT22;28552;51.146;6.576;2023-07-16T13:11:33;23.40;83.20
42907;DHT22;28552;51.146;6.576;2023-07-16T13:14:33;23.40;82.60
42907;DHT22;28552;51.146;6.576;2023-07-16T13:17:34;23.50;83.00
42907;DHT22;28552;51.146;6.576;2023-07-16T13:20:35;23.50;82.80
42907;DHT22;28552;51.146;6.576;2023-07-16T13:23:35;23.40;82.50
42907;DHT22;28552;51.146;6.576;2023-07-16T13:26:36;23.30;82.40
42907;DHT22;28552;51.146;6.576;2023-07-16T13:29:37;23.20;82.30
42907;DHT22;28552;51.146;6.576;2023-07-16T13:32:37;23.20;81.90
42907;DHT22;28552;51.146;6.576;2023-07-16T13:35:38;23.40;83.40
42907;DHT22;28552;51.146;6.576;2023-07-16T13:38:38;23.60;82.60
42907;DHT22;28552;51.146;6.576;2023-07-16T13:41:39;23.70;81.80
42907;DHT22;28552;51.146;6.576;2023-07-16T13:44:40;23.80;79.90
42907;DHT22;28552;51.146;6.576;2023-07-16T13:47:41;23.90;77.30
42907;DHT22;28552;51.146;6.576;2023-07-16T13:50:42;23.80;78.70
42907;DHT22;28552;51.146;6.576;2023-07-16T13:53:42;23.80;78.90
42907;DHT22;28552;51.146;6.576;2023-07-16T13:56:43;23.70;79.40
42907;DHT22;28552;51.146;6.576;2023-07-16T13:59:44;23.80;80.10
42907;DHT22;28552;51.146;6.576;2023-07-16T14:02:45;23.90;79.80
42907;DHT22;28552;51.146;6.576;2023-07-16T14:05:45;23.80;79.10
42907;DHT22;28552;51.146;6.576;2023-07-16T14:08:46;23.70;79.40
42907;DHT22;28552;51.146;6.576;2023-07-16T14:11:46;23.60;80.80
42907;DHT22;28552;51.146;6.576;2023-07-16T14:14:48;23.50;81.00
42907;DHT22;28552;51.146;6.576;2023-07-16T14:17:48;23.50;81.50
42907;DHT22;28552;51.146;6.576;2023-07-16T14:20:49;23.70;81.60
42907;DHT22;28552;51.146;6.576;2023-07-16T14:23:50;23.80;80.50
42907;DHT22;28552;51.146;6.576;2023-07-16T14:26:50;24.00;80.60
42907;DHT22;28552;51.146;6.576;2023-07-16T14:29:51;23.90;80.40
42907;DHT22;28552;51.146;6.576;2023-07-16T14:32:51;23.90;80.70
42907;DHT22;28552;51.146;6.576;2023-07-16T14:35:52;23.80;80.70
42907;DHT22;28552;51.146;6.576;2023-07-16T14:38:52;23.70;78.90
42907;DHT22;28552;51.146;6.576;2023-07-16T14:41:53;23.70;78.90
42907;DHT22;28552;51.146;6.576;2023-07-16T14:44:53;23.50;79.50
42907;DHT22;28552;51.146;6.576;2023-07-16T14:47:54;23.60;80.10
42907;DHT22;28552;51.146;6.576;2023-07-16T14:50:54;23.80;80.70
42907;DHT22;28552;51.146;6.576;2023-07-16T14:53:56;24.00;81.00
42907;DHT22;28552;51.146;6.576;2023-07-16T14:56:56;24.20;80.70
42907;DHT22;28552;51.146;6.576;2023-07-16T14:59:57;24.30;80.70
42907;DHT22;28552;51.146;6.576;2023-07-16T15:02:58;24.40;80.60
42907;DHT22;28552;51.146;6.576;2023-07-16T15:05:59;24.50;80.60
42907;DHT22;28552;51.146;6.576;2023-07-16T15:08:59;24.30;79.00
42907;DHT22;28552;51.146;6.576;2023-07-16T15:12:00;24.10;77.50
42907;DHT22;28552;51.146;6.576;2023-07-16T15:15:01;24.00;78.80
42907;DHT22;28552;51.146;6.576;2023-07-16T15:18:01;24.00;79.30
42907;DHT22;28552;51.146;6.576;2023-07-16T15:21:02;24.10;78.90
42907;DHT22;28552;51.146;6.576;2023-07-16T15:24:05;24.20;79.30
42907;DHT22;28552;51.146;6.576;2023-07-16T15:27:05;24.40;79.00
42907;DHT22;28552;51.146;6.576;2023-07-16T15:30:06;24.50;76.40
42907;DHT22;28552;51.146;6.576;2023-07-16T15:33:07;24.50;77.40
42907;DHT22;28552;51.146;6.576;2023-07-16T15:36:10;24.30;78.00
42907;DHT22;28552;51.146;6.576;2023-07-16T15:39:11;24.20;77.90
42907;DHT22;28552;51.146;6.576;2023-07-16T15:42:12;24.00;77.50
42907;DHT22;28552;51.146;6.576;2023-07-16T15:45:12;23.80;77.70
42907;DHT22;28552;51.146;6.576;2023-07-16T15:48:13;23.60;78.20
42907;DHT22;28552;51.146;6.576;2023-07-16T15:51:14;23.50;78.80
42907;DHT22;28552;51.146;6.576;2023-07-16T15:54:15;23.60;79.00
42907;DHT22;28552;51.146;6.576;2023-07-16T15:57:16;23.70;78.70
42907;DHT22;28552;51.146;6.576;2023-07-16T16:00:16;23.70;79.30
42907;DHT22;28552;51.146;6.576;2023-07-16T16:03:17;23.80;78.90
42907;DHT22;28552;51.146;6.576;2023-07-16T16:06:18;23.90;79.10
42907;DHT22;28552;51.146;6.576;2023-07-16T16:09:18;24.00;78.90
42907;DHT22;28552;51.146;6.576;2023-07-16T16:12:19;24.20;78.50
42907;DHT22;28552;51.146;6.576;2023-07-16T16:15:19;24.30;77.50
42907;DHT22;28552;51.146;6.576;2023-07-16T16:18:21;24.40;77.30
42907;DHT22;28552;51.146;6.576;2023-07-16T16:21:25;24.40;78.00
42907;DHT22;28552;51.146;6.576;2023-07-16T16:24:25;24.50;77.30
42907;DHT22;28552;51.146;6.576;2023-07-16T16:27:26;24.70;76.70
42907;DHT22;28552;51.146;6.576;2023-07-16T16:30:27;24.80;76.20
42907;DHT22;28552;51.146;6.576;2023-07-16T16:33:28;24.90;76.20
42907;DHT22;28552;51.146;6.576;2023-07-16T16:36:29;25.00;75.30
42907;DHT22;28552;51.146;6.576;2023-07-16T16:39:29;25.10;75.00
42907;DHT22;28552;51.146;6.576;2023-07-16T16:42:30;25.20;74.50
42907;DHT22;28552;51.146;6.576;2023-07-16T16:45:31;25.20;73.00
42907;DHT22;28552;51.146;6.576;2023-07-16T16:48:31;25.10;73.10
42907;DHT22;28552;51.146;6.576;2023-07-16T16:51:36;25.00;73.20
42907;DHT22;28552;51.146;6.576;2023-07-16T16:54:36;24.80;72.70
42907;DHT22;28552;51.146;6.576;2023-07-16T16:57:39;24.60;72.40
42907;DHT22;28552;51.146;6.576;2023-07-16T17:00:39;24.40;72.80
42907;DHT22;28552;51.146;6.576;2023-07-16T17:03:40;24.20;72.60
42907;DHT22;28552;51.146;6.576;2023-07-16T17:06:41;24.00;72.70
42907;DHT22;28552;51.146;6.576;2023-07-16T17:09:43;23.90;72.40
42907;DHT22;28552;51.146;6.576;2023-07-16T17:12:44;23.80;72.90
42907;DHT22;28552;51.146;6.576;2023-07-16T17:15:46;23.80;72.80
42907;DHT22;28552;51.146;6.576;2023-07-16T17:18:47;23.80;73.10
42907;DHT22;28552;51.146;6.576;2023-07-16T17:21:48;23.80;73.00
42907;DHT22;28552;51.146;6.576;2023-07-16T17:24:49;23.70;73.10
42907;DHT22;28552;51.146;6.576;2023-07-16T17:27:50;23.60;73.60
42907;DHT22;28552;51.146;6.576;2023-07-16T17:30:50;23.60;73.80
42907;DHT22;28552;51.146;6.576;2023-07-16T17:33:52;23.60;74.00
42907;DHT22;28552;51.146;6.576;2023-07-16T17:36:52;23.70;74.40
42907;DHT22;28552;51.146;6.576;2023-07-16T17:39:53;23.70;74.30
42907;DHT22;28552;51.146;6.576;2023-07-16T17:42:53;23.80;74.30
42907;DHT22;28552;51.146;6.576;2023-07-16T17:45:55;23.70;73.90
42907;DHT22;28552;51.146;6.576;2023-07-16T17:48:56;23.60;73.80
42907;DHT22;28552;51.146;6.576;2023-07-16T17:51:57;23.50;72.90
42907;DHT22;28552;51.146;6.576;2023-07-16T17:54:58;23.40;73.50
42907;DHT22;28552;51.146;6.576;2023-07-16T17:57:58;23.30;73.70
42907;DHT22;28552;51.146;6.576;2023-07-16T18:00:59;23.20;73.90
42907;DHT22;28552;51.146;6.576;2023-07-16T18:03:59;23.10;74.20
42907;DHT22;28552;51.146;6.576;2023-07-16T18:07:01;23.00;74.20
42907;DHT22;28552;51.146;6.576;2023-07-16T18:10:02;22.90;74.30
42907;DHT22;28552;51.146;6.576;2023-07-16T18:13:03;22.90;74.60
42907;DHT22;28552;51.146;6.576;2023-07-16T18:16:04;22.80;74.90
42907;DHT22;28552;51.146;6.576;2023-07-16T18:19:05;22.80;75.30
42907;DHT22;28552;51.146;6.576;2023-07-16T18:22:06;22.80;75.20
42907;DHT22;28552;51.146;6.576;2023-07-16T18:25:07;22.70;75.10
42907;DHT22;28552;51.146;6.576;2023-07-16T18:28:07;22.70;75.20
42907;DHT22;28552;51.146;6.576;2023-07-16T18:31:08;22.70;75.40
42907;DHT22;28552;51.146;6.576;2023-07-16T18:34:08;22.70;75.60
42907;DHT22;28552;51.146;6.576;2023-07-16T18:37:09;22.60;75.80
42907;DHT22;28552;51.146;6.576;2023-07-16T18:40:10;22.60;75.90
42907;DHT22;28552;51.146;6.576;2023-07-16T18:43:11;22.60;76.30
42907;DHT22;28552;51.146;6.576;2023-07-16T18:46:12;22.50;76.70
42907;DHT22;28552;51.146;6.576;2023-07-16T18:49:12;22.30;77.50
42907;DHT22;28552;51.146;6.576;2023-07-16T18:52:13;22.30;77.30
42907;DHT22;28552;51.146;6.576;2023-07-16T18:55:14;22.20;77.40
42907;DHT22;28552;51.146;6.576;2023-07-16T18:58:14;22.10;77.60
42907;DHT22;28552;51.146;6.576;2023-07-16T19:01:15;22.00;78.10
42907;DHT22;28552;51.146;6.576;2023-07-16T19:04:15;21.90;78.60
42907;DHT22;28552;51.146;6.576;2023-07-16T19:07:16;21.80;78.90